Portada
METAR-TAF:

METAR-TAF

Aeroports :

Sparta Community Airport (Hunter Field)

Sparta, Illinois, Estats Units d'Amèrica

latitud: 38-08-56N, longitud: 089-41-55W, altitud: 164 m

Observació

L'informe es va fer fa 12 minuts, a les 13:15 UTC
Vent 5 kt del Nord
Temperatura 17°C
Humitat 68%
Pressió 1024 hPa
Visibilitat: 16.1 km
Cel clar

METAR: KSAR 301315Z AUTO 36005KT 10SM CLR 17/11 A3023 RMK AO2 T01650110

Hora: 08:27 (13:27 UTC)


TAF: manca

Observacions i pronòstics meteorològics de més de 4000 aeroports (METAR i TAF).

Les estacions disponibles són els punts grocs i vermells al mapa.

Posi el ratolí al punt desitjat per veure el nom de l'estació.

Feu clic per veure les observacions i els pronòstics meteorològics.

Per canviar el mapa: feu clic els botons verds amb una creu de color negre per apropar; al botó verd amb un guió per allunyar la imatge; o en les fletxes verdes per a mapes adjacents.


METAR-TAF: